sensor_id;sensor_type;location;lat;lon;timestamp;temperature;humidity
3406;DHT22;10008;48.682;9.016;2023-06-14T00:00:35;14.20;90.00
3406;DHT22;10008;48.682;9.016;2023-06-14T00:03:02;14.20;90.60
3406;DHT22;10008;48.682;9.016;2023-06-14T00:05:29;14.20;87.80
3406;DHT22;10008;48.682;9.016;2023-06-14T00:07:55;14.10;86.50
3406;DHT22;10008;48.682;9.016;2023-06-14T00:10:21;14.10;86.90
3406;DHT22;10008;48.682;9.016;2023-06-14T00:12:47;14.00;86.60
3406;DHT22;10008;48.682;9.016;2023-06-14T00:15:13;13.90;86.70
3406;DHT22;10008;48.682;9.016;2023-06-14T00:17:39;13.90;87.00
3406;DHT22;10008;48.682;9.016;2023-06-14T00:20:05;13.80;89.40
3406;DHT22;10008;48.682;9.016;2023-06-14T00:22:32;13.70;90.20
3406;DHT22;10008;48.682;9.016;2023-06-14T00:24:58;13.70;89.70
3406;DHT22;10008;48.682;9.016;2023-06-14T00:27:24;13.50;90.50
3406;DHT22;10008;48.682;9.016;2023-06-14T00:29:50;12.00;91.10
3406;DHT22;10008;48.682;9.016;2023-06-14T00:32:16;13.50;92.20
3406;DHT22;10008;48.682;9.016;2023-06-14T00:34:42;13.50;92.00
3406;DHT22;10008;48.682;9.016;2023-06-14T00:37:07;13.40;92.20
3406;DHT22;10008;48.682;9.016;2023-06-14T00:39:34;13.50;92.90
3406;DHT22;10008;48.682;9.016;2023-06-14T00:42:00;13.50;95.50
3406;DHT22;10008;48.682;9.016;2023-06-14T00:44:26;13.50;95.00
3406;DHT22;10008;48.682;9.016;2023-06-14T00:46:52;13.50;92.90
3406;DHT22;10008;48.682;9.016;2023-06-14T00:49:18;13.50;92.00
3406;DHT22;10008;48.682;9.016;2023-06-14T00:51:45;13.40;92.90
3406;DHT22;10008;48.682;9.016;2023-06-14T00:54:11;13.40;93.00
3406;DHT22;10008;48.682;9.016;2023-06-14T00:56:37;13.40;94.00
3406;DHT22;10008;48.682;9.016;2023-06-14T00:59:03;13.30;93.80
3406;DHT22;10008;48.682;9.016;2023-06-14T01:01:30;13.40;94.30
3406;DHT22;10008;48.682;9.016;2023-06-14T01:04:00;13.30;93.70
3406;DHT22;10008;48.682;9.016;2023-06-14T01:07:02;13.30;93.20
3406;DHT22;10008;48.682;9.016;2023-06-14T01:14:55;13.20;94.30
3406;DHT22;10008;48.682;9.016;2023-06-14T01:17:23;13.10;93.90
3406;DHT22;10008;48.682;9.016;2023-06-14T01:19:51;13.10;94.30
3406;DHT22;10008;48.682;9.016;2023-06-14T01:22:27;13.00;93.80
3406;DHT22;10008;48.682;9.016;2023-06-14T01:24:55;13.00;94.50
3406;DHT22;10008;48.682;9.016;2023-06-14T01:27:24;12.90;94.30
3406;DHT22;10008;48.682;9.016;2023-06-14T01:29:55;12.90;94.00
3406;DHT22;10008;48.682;9.016;2023-06-14T01:32:26;12.80;94.20
3406;DHT22;10008;48.682;9.016;2023-06-14T01:34:53;12.80;94.90
3406;DHT22;10008;48.682;9.016;2023-06-14T01:37:20;12.80;95.30
3406;DHT22;10008;48.682;9.016;2023-06-14T01:39:48;12.70;95.60
3406;DHT22;10008;48.682;9.016;2023-06-14T01:42:18;12.70;96.10
3406;DHT22;10008;48.682;9.016;2023-06-14T01:44:46;12.70;96.50
3406;DHT22;10008;48.682;9.016;2023-06-14T01:47:14;12.70;96.10
3406;DHT22;10008;48.682;9.016;2023-06-14T01:49:40;12.60;96.20
3406;DHT22;10008;48.682;9.016;2023-06-14T01:52:06;12.60;96.70
3406;DHT22;10008;48.682;9.016;2023-06-14T01:54:35;12.60;96.60
3406;DHT22;10008;48.682;9.016;2023-06-14T01:57:08;12.60;96.60
3406;DHT22;10008;48.682;9.016;2023-06-14T01:59:33;12.50;95.80
3406;DHT22;10008;48.682;9.016;2023-06-14T02:02:02;12.50;96.10
3406;DHT22;10008;48.682;9.016;2023-06-14T02:04:28;12.60;97.70
3406;DHT22;10008;48.682;9.016;2023-06-14T02:06:53;12.50;97.30
3406;DHT22;10008;48.682;9.016;2023-06-14T02:09:19;12.50;98.70
3406;DHT22;10008;48.682;9.016;2023-06-14T02:11:45;12.50;99.10
3406;DHT22;10008;48.682;9.016;2023-06-14T02:14:11;12.60;98.90
3406;DHT22;10008;48.682;9.016;2023-06-14T02:16:37;12.40;98.40
3406;DHT22;10008;48.682;9.016;2023-06-14T02:19:05;12.50;98.40
3406;DHT22;10008;48.682;9.016;2023-06-14T02:21:30;12.40;98.70
3406;DHT22;10008;48.682;9.016;2023-06-14T02:23:56;12.40;97.60
3406;DHT22;10008;48.682;9.016;2023-06-14T02:26:23;12.30;98.80
3406;DHT22;10008;48.682;9.016;2023-06-14T02:28:49;12.30;98.10
3406;DHT22;10008;48.682;9.016;2023-06-14T02:31:15;12.20;97.80
3406;DHT22;10008;48.682;9.016;2023-06-14T02:33:41;12.20;98.00
3406;DHT22;10008;48.682;9.016;2023-06-14T02:36:07;12.20;97.70
3406;DHT22;10008;48.682;9.016;2023-06-14T02:38:34;12.10;97.80
3406;DHT22;10008;48.682;9.016;2023-06-14T02:41:00;12.10;98.10
3406;DHT22;10008;48.682;9.016;2023-06-14T02:43:28;12.10;98.20
3406;DHT22;10008;48.682;9.016;2023-06-14T02:45:55;12.10;98.80
3406;DHT22;10008;48.682;9.016;2023-06-14T02:48:20;12.00;98.90
3406;DHT22;10008;48.682;9.016;2023-06-14T02:50:46;12.00;99.80
3406;DHT22;10008;48.682;9.016;2023-06-14T02:53:12;11.90;99.90
3406;DHT22;10008;48.682;9.016;2023-06-14T02:55:38;11.90;99.90
3406;DHT22;10008;48.682;9.016;2023-06-14T02:58:06;11.90;99.90
3406;DHT22;10008;48.682;9.016;2023-06-14T03:00:31;11.80;99.90
3406;DHT22;10008;48.682;9.016;2023-06-14T03:02:58;11.80;99.90
3406;DHT22;10008;48.682;9.016;2023-06-14T03:05:27;11.90;99.90
3406;DHT22;10008;48.682;9.016;2023-06-14T03:07:54;11.90;99.90
3406;DHT22;10008;48.682;9.016;2023-06-14T03:10:20;11.90;99.90
3406;DHT22;10008;48.682;9.016;2023-06-14T03:12:48;11.80;99.90
3406;DHT22;10008;48.682;9.016;2023-06-14T03:15:15;11.80;99.90
3406;DHT22;10008;48.682;9.016;2023-06-14T03:17:45;11.80;99.90
3406;DHT22;10008;48.682;9.016;2023-06-14T03:20:12;11.70;99.90
3406;DHT22;10008;48.682;9.016;2023-06-14T03:22:38;11.70;99.90
3406;DHT22;10008;48.682;9.016;2023-06-14T03:25:05;11.70;99.90
3406;DHT22;10008;48.682;9.016;2023-06-14T03:27:35;11.60;99.90
3406;DHT22;10008;48.682;9.016;2023-06-14T03:30:02;11.60;99.90
3406;DHT22;10008;48.682;9.016;2023-06-14T03:32:29;11.60;99.90
3406;DHT22;10008;48.682;9.016;2023-06-14T03:34:58;11.60;99.90
3406;DHT22;10008;48.682;9.016;2023-06-14T03:37:24;11.60;99.90
3406;DHT22;10008;48.682;9.016;2023-06-14T03:39:50;11.60;99.90
3406;DHT22;10008;48.682;9.016;2023-06-14T03:42:20;11.50;99.90
3406;DHT22;10008;48.682;9.016;2023-06-14T03:44:47;11.50;99.90
3406;DHT22;10008;48.682;9.016;2023-06-14T03:47:13;11.50;99.90
3406;DHT22;10008;48.682;9.016;2023-06-14T03:49:39;11.50;99.90
3406;DHT22;10008;48.682;9.016;2023-06-14T03:52:05;11.50;99.90
3406;DHT22;10008;48.682;9.016;2023-06-14T03:54:32;11.50;99.90
3406;DHT22;10008;48.682;9.016;2023-06-14T03:56:59;11.50;99.90
3406;DHT22;10008;48.682;9.016;2023-06-14T03:59:25;11.60;99.90
3406;DHT22;10008;48.682;9.016;2023-06-14T04:01:51;11.60;99.90
3406;DHT22;10008;48.682;9.016;2023-06-14T04:04:19;11.60;99.90
3406;DHT22;10008;48.682;9.016;2023-06-14T04:06:46;11.70;99.90
3406;DHT22;10008;48.682;9.016;2023-06-14T04:09:14;11.70;99.90
3406;DHT22;10008;48.682;9.016;2023-06-14T04:11:40;11.80;99.90
3406;DHT22;10008;48.682;9.016;2023-06-14T04:14:06;11.90;99.90
3406;DHT22;10008;48.682;9.016;2023-06-14T04:16:32;12.00;99.90
3406;DHT22;10008;48.682;9.016;2023-06-14T04:19:00;12.00;99.90
3406;DHT22;10008;48.682;9.016;2023-06-14T04:21:26;12.00;99.90
3406;DHT22;10008;48.682;9.016;2023-06-14T04:23:54;12.00;99.90
3406;DHT22;10008;48.682;9.016;2023-06-14T04:26:24;12.00;99.90
3406;DHT22;10008;48.682;9.016;2023-06-14T04:28:56;12.10;99.90
3406;DHT22;10008;48.682;9.016;2023-06-14T04:31:23;12.10;99.90
3406;DHT22;10008;48.682;9.016;2023-06-14T04:33:52;12.30;99.90
3406;DHT22;10008;48.682;9.016;2023-06-14T04:36:20;12.40;99.90
3406;DHT22;10008;48.682;9.016;2023-06-14T04:38:48;12.50;99.90
3406;DHT22;10008;48.682;9.016;2023-06-14T04:41:15;12.60;99.90
3406;DHT22;10008;48.682;9.016;2023-06-14T04:43:42;12.60;99.90
3406;DHT22;10008;48.682;9.016;2023-06-14T04:46:09;12.70;99.90
3406;DHT22;10008;48.682;9.016;2023-06-14T04:48:37;12.80;99.90
3406;DHT22;10008;48.682;9.016;2023-06-14T04:51:03;12.80;99.90
3406;DHT22;10008;48.682;9.016;2023-06-14T04:53:29;12.80;99.90
3406;DHT22;10008;48.682;9.016;2023-06-14T04:55:56;12.90;99.90
3406;DHT22;10008;48.682;9.016;2023-06-14T04:58:23;12.90;99.80
3406;DHT22;10008;48.682;9.016;2023-06-14T05:00:49;13.00;99.90
3406;DHT22;10008;48.682;9.016;2023-06-14T05:03:15;13.00;99.90
3406;DHT22;10008;48.682;9.016;2023-06-14T05:05:41;13.10;99.90
3406;DHT22;10008;48.682;9.016;2023-06-14T05:08:07;13.10;99.70
3406;DHT22;10008;48.682;9.016;2023-06-14T05:10:34;13.30;98.80
3406;DHT22;10008;48.682;9.016;2023-06-14T05:13:01;13.30;99.30
3406;DHT22;10008;48.682;9.016;2023-06-14T05:15:27;13.40;99.00
3406;DHT22;10008;48.682;9.016;2023-06-14T05:17:54;13.50;98.90
3406;DHT22;10008;48.682;9.016;2023-06-14T05:20:22;13.50;98.90
3406;DHT22;10008;48.682;9.016;2023-06-14T05:22:55;13.60;98.60
3406;DHT22;10008;48.682;9.016;2023-06-14T05:25:22;13.70;98.90
3406;DHT22;10008;48.682;9.016;2023-06-14T05:27:48;13.70;99.20
3406;DHT22;10008;48.682;9.016;2023-06-14T05:30:15;13.80;98.70
3406;DHT22;10008;48.682;9.016;2023-06-14T05:32:41;13.90;98.80
3406;DHT22;10008;48.682;9.016;2023-06-14T05:35:07;14.00;98.40
3406;DHT22;10008;48.682;9.016;2023-06-14T05:37:33;14.10;98.40
3406;DHT22;10008;48.682;9.016;2023-06-14T05:39:59;14.20;98.00
3406;DHT22;10008;48.682;9.016;2023-06-14T05:42:25;14.30;97.90
3406;DHT22;10008;48.682;9.016;2023-06-14T05:44:51;14.50;97.30
3406;DHT22;10008;48.682;9.016;2023-06-14T05:47:16;14.60;97.40
3406;DHT22;10008;48.682;9.016;2023-06-14T05:49:43;14.70;97.50
3406;DHT22;10008;48.682;9.016;2023-06-14T05:52:09;14.70;97.00
3406;DHT22;10008;48.682;9.016;2023-06-14T05:54:35;14.90;97.10
3406;DHT22;10008;48.682;9.016;2023-06-14T05:57:01;15.00;96.90
3406;DHT22;10008;48.682;9.016;2023-06-14T05:59:27;15.20;96.10
3406;DHT22;10008;48.682;9.016;2023-06-14T06:01:53;15.40;96.00
3406;DHT22;10008;48.682;9.016;2023-06-14T06:04:19;15.50;95.50
3406;DHT22;10008;48.682;9.016;2023-06-14T06:06:46;15.70;94.20
3406;DHT22;10008;48.682;9.016;2023-06-14T06:09:12;16.00;94.00
3406;DHT22;10008;48.682;9.016;2023-06-14T06:11:40;16.20;92.70
3406;DHT22;10008;48.682;9.016;2023-06-14T06:14:05;16.60;91.60
3406;DHT22;10008;48.682;9.016;2023-06-14T06:16:31;17.90;90.50
3406;DHT22;10008;48.682;9.016;2023-06-14T06:18:57;19.40;84.30
3406;DHT22;10008;48.682;9.016;2023-06-14T06:21:23;20.50;79.50
3406;DHT22;10008;48.682;9.016;2023-06-14T06:23:49;21.80;74.70
3406;DHT22;10008;48.682;9.016;2023-06-14T06:26:14;22.70;70.60
3406;DHT22;10008;48.682;9.016;2023-06-14T06:28:40;23.50;69.80
3406;DHT22;10008;48.682;9.016;2023-06-14T06:31:06;24.10;64.50
3406;DHT22;10008;48.682;9.016;2023-06-14T06:33:32;24.80;61.00
3406;DHT22;10008;48.682;9.016;2023-06-14T06:35:58;25.10;58.20
3406;DHT22;10008;48.682;9.016;2023-06-14T06:38:23;26.40;58.70
3406;DHT22;10008;48.682;9.016;2023-06-14T06:40:49;26.70;56.40
3406;DHT22;10008;48.682;9.016;2023-06-14T06:43:15;27.00;54.80
3406;DHT22;10008;48.682;9.016;2023-06-14T06:45:45;27.60;54.80
3406;DHT22;10008;48.682;9.016;2023-06-14T06:48:11;27.30;53.90
3406;DHT22;10008;48.682;9.016;2023-06-14T06:50:37;26.50;53.60
3406;DHT22;10008;48.682;9.016;2023-06-14T06:53:03;27.00;53.10
3406;DHT22;10008;48.682;9.016;2023-06-14T06:55:29;27.30;51.90
3406;DHT22;10008;48.682;9.016;2023-06-14T06:57:55;27.50;52.00
3406;DHT22;10008;48.682;9.016;2023-06-14T07:00:21;28.30;51.00
3406;DHT22;10008;48.682;9.016;2023-06-14T07:02:47;28.50;49.80
3406;DHT22;10008;48.682;9.016;2023-06-14T07:05:13;28.80;48.50
3406;DHT22;10008;48.682;9.016;2023-06-14T07:07:39;28.50;49.30
3406;DHT22;10008;48.682;9.016;2023-06-14T07:10:05;28.10;48.10
3406;DHT22;10008;48.682;9.016;2023-06-14T07:12:32;28.30;49.30
3406;DHT22;10008;48.682;9.016;2023-06-14T07:14:59;28.00;48.30
3406;DHT22;10008;48.682;9.016;2023-06-14T07:17:27;27.50;48.80
3406;DHT22;10008;48.682;9.016;2023-06-14T07:19:52;27.80;49.70
3406;DHT22;10008;48.682;9.016;2023-06-14T07:22:19;27.80;50.00
3406;DHT22;10008;48.682;9.016;2023-06-14T07:24:45;28.40;48.40
3406;DHT22;10008;48.682;9.016;2023-06-14T07:27:11;28.60;48.00
3406;DHT22;10008;48.682;9.016;2023-06-14T07:29:38;28.40;46.60
3406;DHT22;10008;48.682;9.016;2023-06-14T07:32:04;28.50;46.30
3406;DHT22;10008;48.682;9.016;2023-06-14T07:34:30;29.40;45.30
3406;DHT22;10008;48.682;9.016;2023-06-14T07:36:56;29.70;45.70
3406;DHT22;10008;48.682;9.016;2023-06-14T07:39:22;29.40;44.70
3406;DHT22;10008;48.682;9.016;2023-06-14T07:41:49;28.90;44.50
3406;DHT22;10008;48.682;9.016;2023-06-14T07:44:15;28.40;45.10
3406;DHT22;10008;48.682;9.016;2023-06-14T07:46:41;28.30;45.90
3406;DHT22;10008;48.682;9.016;2023-06-14T07:49:07;29.10;46.40
3406;DHT22;10008;48.682;9.016;2023-06-14T07:51:33;27.70;44.40
3406;DHT22;10008;48.682;9.016;2023-06-14T07:54:03;29.10;44.60
3406;DHT22;10008;48.682;9.016;2023-06-14T07:56:29;28.50;45.60
3406;DHT22;10008;48.682;9.016;2023-06-14T07:58:55;29.10;45.90
3406;DHT22;10008;48.682;9.016;2023-06-14T08:01:20;29.40;45.70
3406;DHT22;10008;48.682;9.016;2023-06-14T08:03:46;30.00;46.20
3406;DHT22;10008;48.682;9.016;2023-06-14T08:06:12;30.40;45.00
3406;DHT22;10008;48.682;9.016;2023-06-14T08:08:38;29.80;45.40
3406;DHT22;10008;48.682;9.016;2023-06-14T08:11:04;30.10;46.00
3406;DHT22;10008;48.682;9.016;2023-06-14T08:13:29;30.70;45.70
3406;DHT22;10008;48.682;9.016;2023-06-14T08:15:55;30.50;44.60
3406;DHT22;10008;48.682;9.016;2023-06-14T08:18:22;30.50;45.00
3406;DHT22;10008;48.682;9.016;2023-06-14T08:20:48;30.20;44.80
3406;DHT22;10008;48.682;9.016;2023-06-14T08:23:15;29.80;45.60
3406;DHT22;10008;48.682;9.016;2023-06-14T08:25:44;29.50;45.00
3406;DHT22;10008;48.682;9.016;2023-06-14T08:28:10;29.20;45.80
3406;DHT22;10008;48.682;9.016;2023-06-14T08:30:36;29.50;45.90
3406;DHT22;10008;48.682;9.016;2023-06-14T08:33:02;29.50;46.10
3406;DHT22;10008;48.682;9.016;2023-06-14T08:35:27;29.70;46.00
3406;DHT22;10008;48.682;9.016;2023-06-14T08:37:53;30.20;45.30
3406;DHT22;10008;48.682;9.016;2023-06-14T08:40:21;30.40;45.40
3406;DHT22;10008;48.682;9.016;2023-06-14T08:42:50;30.00;45.30
3406;DHT22;10008;48.682;9.016;2023-06-14T08:45:16;29.90;44.90
3406;DHT22;10008;48.682;9.016;2023-06-14T08:47:42;29.60;45.70
3406;DHT22;10008;48.682;9.016;2023-06-14T08:50:08;29.30;46.30
3406;DHT22;10008;48.682;9.016;2023-06-14T08:52:38;29.60;46.20
3406;DHT22;10008;48.682;9.016;2023-06-14T08:55:11;30.20;45.00
3406;DHT22;10008;48.682;9.016;2023-06-14T08:57:39;30.20;43.40
3406;DHT22;10008;48.682;9.016;2023-06-14T09:00:05;30.00;43.80
3406;DHT22;10008;48.682;9.016;2023-06-14T09:02:38;30.30;43.80
3406;DHT22;10008;48.682;9.016;2023-06-14T09:05:12;29.90;43.80
3406;DHT22;10008;48.682;9.016;2023-06-14T09:07:44;29.80;45.00
3406;DHT22;10008;48.682;9.016;2023-06-14T09:10:12;30.70;44.40
3406;DHT22;10008;48.682;9.016;2023-06-14T09:12:38;31.00;43.50
3406;DHT22;10008;48.682;9.016;2023-06-14T09:15:08;31.00;42.10
3406;DHT22;10008;48.682;9.016;2023-06-14T09:17:35;31.30;41.40
3406;DHT22;10008;48.682;9.016;2023-06-14T09:20:08;31.40;41.50
3406;DHT22;10008;48.682;9.016;2023-06-14T09:22:37;30.80;42.30
3406;DHT22;10008;48.682;9.016;2023-06-14T09:25:03;30.90;42.70
3406;DHT22;10008;48.682;9.016;2023-06-14T09:27:32;31.00;43.00
3406;DHT22;10008;48.682;9.016;2023-06-14T09:29:58;30.60;42.80
3406;DHT22;10008;48.682;9.016;2023-06-14T09:32:25;31.00;43.30
3406;DHT22;10008;48.682;9.016;2023-06-14T09:34:51;30.90;43.40
3406;DHT22;10008;48.682;9.016;2023-06-14T09:37:30;31.00;43.40
3406;DHT22;10008;48.682;9.016;2023-06-14T09:39:57;31.40;44.70
3406;DHT22;10008;48.682;9.016;2023-06-14T09:42:23;32.00;42.40
3406;DHT22;10008;48.682;9.016;2023-06-14T09:44:52;32.10;41.30
3406;DHT22;10008;48.682;9.016;2023-06-14T09:47:18;31.70;41.30
3406;DHT22;10008;48.682;9.016;2023-06-14T09:49:45;31.40;43.00
3406;DHT22;10008;48.682;9.016;2023-06-14T09:52:17;31.50;41.10
3406;DHT22;10008;48.682;9.016;2023-06-14T09:54:45;30.80;40.90
3406;DHT22;10008;48.682;9.016;2023-06-14T09:57:16;30.70;41.20
3406;DHT22;10008;48.682;9.016;2023-06-14T09:59:44;30.40;39.90
3406;DHT22;10008;48.682;9.016;2023-06-14T10:02:21;30.40;40.10
3406;DHT22;10008;48.682;9.016;2023-06-14T10:04:56;31.00;39.70
3406;DHT22;10008;48.682;9.016;2023-06-14T10:07:25;31.50;37.30
3406;DHT22;10008;48.682;9.016;2023-06-14T10:09:53;31.40;38.30
3406;DHT22;10008;48.682;9.016;2023-06-14T10:12:18;30.80;40.10
3406;DHT22;10008;48.682;9.016;2023-06-14T10:14:49;31.20;39.20
3406;DHT22;10008;48.682;9.016;2023-06-14T10:23:49;31.30;38.50
3406;DHT22;10008;48.682;9.016;2023-06-14T10:26:23;30.90;38.30
3406;DHT22;10008;48.682;9.016;2023-06-14T10:29:08;31.20;39.60
3406;DHT22;10008;48.682;9.016;2023-06-14T10:32:03;32.30;39.00
3406;DHT22;10008;48.682;9.016;2023-06-14T10:34:30;32.30;38.90
3406;DHT22;10008;48.682;9.016;2023-06-14T10:39:27;31.30;39.50
3406;DHT22;10008;48.682;9.016;2023-06-14T10:41:55;30.40;40.00
3406;DHT22;10008;48.682;9.016;2023-06-14T10:46:52;28.30;43.60
3406;DHT22;10008;48.682;9.016;2023-06-14T10:49:40;28.60;42.30
3406;DHT22;10008;48.682;9.016;2023-06-14T10:52:15;29.80;42.90
3406;DHT22;10008;48.682;9.016;2023-06-14T10:55:00;30.80;39.90
3406;DHT22;10008;48.682;9.016;2023-06-14T10:57:27;29.90;41.30
3406;DHT22;10008;48.682;9.016;2023-06-14T10:59:53;28.80;42.20
3406;DHT22;10008;48.682;9.016;2023-06-14T11:04:56;27.30;46.00
3406;DHT22;10008;48.682;9.016;2023-06-14T11:10:40;29.20;42.50
3406;DHT22;10008;48.682;9.016;2023-06-14T11:13:09;30.50;41.90
3406;DHT22;10008;48.682;9.016;2023-06-14T11:15:36;30.80;39.30
3406;DHT22;10008;48.682;9.016;2023-06-14T11:18:06;31.30;40.10
3406;DHT22;10008;48.682;9.016;2023-06-14T11:20:34;32.30;37.20
3406;DHT22;10008;48.682;9.016;2023-06-14T11:23:01;32.60;37.00
3406;DHT22;10008;48.682;9.016;2023-06-14T11:25:27;32.60;36.10
3406;DHT22;10008;48.682;9.016;2023-06-14T11:27:55;33.10;34.80
3406;DHT22;10008;48.682;9.016;2023-06-14T11:30:22;32.80;34.60
3406;DHT22;10008;48.682;9.016;2023-06-14T11:32:52;33.10;35.60
3406;DHT22;10008;48.682;9.016;2023-06-14T11:35:20;33.40;35.40
3406;DHT22;10008;48.682;9.016;2023-06-14T11:37:47;33.20;36.30
3406;DHT22;10008;48.682;9.016;2023-06-14T11:40:14;31.70;36.90
3406;DHT22;10008;48.682;9.016;2023-06-14T11:42:41;30.30;38.00
3406;DHT22;10008;48.682;9.016;2023-06-14T11:45:11;29.60;39.50
3406;DHT22;10008;48.682;9.016;2023-06-14T11:47:38;30.00;40.10
3406;DHT22;10008;48.682;9.016;2023-06-14T11:50:07;29.80;40.10
3406;DHT22;10008;48.682;9.016;2023-06-14T11:52:34;28.60;42.00
3406;DHT22;10008;48.682;9.016;2023-06-14T11:55:01;27.90;43.40
3406;DHT22;10008;48.682;9.016;2023-06-14T11:57:30;27.30;43.70
3406;DHT22;10008;48.682;9.016;2023-06-14T11:59:58;27.60;45.70
3406;DHT22;10008;48.682;9.016;2023-06-14T12:02:37;28.50;43.70
3406;DHT22;10008;48.682;9.016;2023-06-14T12:05:07;28.00;43.30
3406;DHT22;10008;48.682;9.016;2023-06-14T12:07:39;27.60;44.40
3406;DHT22;10008;48.682;9.016;2023-06-14T12:10:08;26.70;45.60
3406;DHT22;10008;48.682;9.016;2023-06-14T12:12:39;26.50;46.20
3406;DHT22;10008;48.682;9.016;2023-06-14T12:15:07;27.30;46.40
3406;DHT22;10008;48.682;9.016;2023-06-14T12:17:36;28.80;44.60
3406;DHT22;10008;48.682;9.016;2023-06-14T12:20:11;30.10;41.50
3406;DHT22;10008;48.682;9.016;2023-06-14T12:22:46;30.90;40.60
3406;DHT22;10008;48.682;9.016;2023-06-14T12:25:32;31.60;39.80
3406;DHT22;10008;48.682;9.016;2023-06-14T12:28:03;32.70;38.60
3406;DHT22;10008;48.682;9.016;2023-06-14T12:30:29;33.10;36.70
3406;DHT22;10008;48.682;9.016;2023-06-14T12:32:55;33.40;36.70
3406;DHT22;10008;48.682;9.016;2023-06-14T12:35:21;33.50;36.00
3406;DHT22;10008;48.682;9.016;2023-06-14T12:37:47;32.80;36.90
3406;DHT22;10008;48.682;9.016;2023-06-14T12:40:13;33.40;36.70
3406;DHT22;10008;48.682;9.016;2023-06-14T12:42:39;33.70;37.40
3406;DHT22;10008;48.682;9.016;2023-06-14T12:45:06;33.20;35.90
3406;DHT22;10008;48.682;9.016;2023-06-14T12:47:32;33.10;35.80
3406;DHT22;10008;48.682;9.016;2023-06-14T12:49:57;32.60;35.90
3406;DHT22;10008;48.682;9.016;2023-06-14T12:52:23;32.20;36.40
3406;DHT22;10008;48.682;9.016;2023-06-14T12:54:50;32.20;37.50
3406;DHT22;10008;48.682;9.016;2023-06-14T12:57:15;32.30;37.00
3406;DHT22;10008;48.682;9.016;2023-06-14T12:59:41;32.10;36.80
3406;DHT22;10008;48.682;9.016;2023-06-14T13:02:15;31.60;38.20
3406;DHT22;10008;48.682;9.016;2023-06-14T13:04:41;31.00;37.60
3406;DHT22;10008;48.682;9.016;2023-06-14T13:07:06;31.20;39.10
3406;DHT22;10008;48.682;9.016;2023-06-14T13:09:32;31.40;38.20
3406;DHT22;10008;48.682;9.016;2023-06-14T13:11:58;31.40;38.50
3406;DHT22;10008;48.682;9.016;2023-06-14T13:14:24;30.90;37.80
3406;DHT22;10008;48.682;9.016;2023-06-14T13:16:50;31.00;39.00
3406;DHT22;10008;48.682;9.016;2023-06-14T13:19:16;30.90;38.10
3406;DHT22;10008;48.682;9.016;2023-06-14T13:21:42;30.80;38.80
3406;DHT22;10008;48.682;9.016;2023-06-14T13:24:07;31.00;37.50
3406;DHT22;10008;48.682;9.016;2023-06-14T13:26:34;30.80;38.10
3406;DHT22;10008;48.682;9.016;2023-06-14T13:28:59;30.60;39.10
3406;DHT22;10008;48.682;9.016;2023-06-14T13:31:25;30.20;39.20
3406;DHT22;10008;48.682;9.016;2023-06-14T13:33:51;30.20;39.20
3406;DHT22;10008;48.682;9.016;2023-06-14T13:36:17;30.20;39.60
3406;DHT22;10008;48.682;9.016;2023-06-14T13:38:42;30.30;39.10
3406;DHT22;10008;48.682;9.016;2023-06-14T13:41:08;30.50;38.50
3406;DHT22;10008;48.682;9.016;2023-06-14T13:43:34;30.70;38.40
3406;DHT22;10008;48.682;9.016;2023-06-14T13:46:00;30.50;39.50
3406;DHT22;10008;48.682;9.016;2023-06-14T13:48:26;30.20;38.40
3406;DHT22;10008;48.682;9.016;2023-06-14T13:50:52;30.20;39.00
3406;DHT22;10008;48.682;9.016;2023-06-14T13:53:17;29.90;38.80
3406;DHT22;10008;48.682;9.016;2023-06-14T13:55:43;28.80;39.90
3406;DHT22;10008;48.682;9.016;2023-06-14T13:58:09;28.60;40.80
3406;DHT22;10008;48.682;9.016;2023-06-14T14:00:35;28.90;40.20
3406;DHT22;10008;48.682;9.016;2023-06-14T14:03:06;29.10;40.50
3406;DHT22;10008;48.682;9.016;2023-06-14T14:05:32;29.30;40.40
3406;DHT22;10008;48.682;9.016;2023-06-14T14:07:58;29.40;40.50
3406;DHT22;10008;48.682;9.016;2023-06-14T14:10:25;29.60;40.20
3406;DHT22;10008;48.682;9.016;2023-06-14T14:12:51;28.30;40.40
3406;DHT22;10008;48.682;9.016;2023-06-14T14:15:18;29.00;41.20
3406;DHT22;10008;48.682;9.016;2023-06-14T14:17:44;29.00;40.50
3406;DHT22;10008;48.682;9.016;2023-06-14T14:20:10;28.50;41.40
3406;DHT22;10008;48.682;9.016;2023-06-14T14:22:38;28.20;43.00
3406;DHT22;10008;48.682;9.016;2023-06-14T14:25:04;28.10;42.90
3406;DHT22;10008;48.682;9.016;2023-06-14T14:27:30;27.50;42.60
3406;DHT22;10008;48.682;9.016;2023-06-14T14:29:55;27.20;43.90
3406;DHT22;10008;48.682;9.016;2023-06-14T14:32:21;27.60;45.70
3406;DHT22;10008;48.682;9.016;2023-06-14T14:34:47;27.70;44.30
3406;DHT22;10008;48.682;9.016;2023-06-14T14:37:12;27.50;42.80
3406;DHT22;10008;48.682;9.016;2023-06-14T14:39:40;27.60;43.30
3406;DHT22;10008;48.682;9.016;2023-06-14T14:42:06;27.70;44.40
3406;DHT22;10008;48.682;9.016;2023-06-14T14:44:33;27.70;43.90
3406;DHT22;10008;48.682;9.016;2023-06-14T14:46:59;27.70;43.00
3406;DHT22;10008;48.682;9.016;2023-06-14T14:49:25;27.70;43.20
3406;DHT22;10008;48.682;9.016;2023-06-14T14:51:50;27.60;43.50
3406;DHT22;10008;48.682;9.016;2023-06-14T14:54:16;27.50;43.70
3406;DHT22;10008;48.682;9.016;2023-06-14T14:56:42;27.50;44.10
3406;DHT22;10008;48.682;9.016;2023-06-14T14:59:07;27.70;43.20
3406;DHT22;10008;48.682;9.016;2023-06-14T15:01:33;27.60;43.00
3406;DHT22;10008;48.682;9.016;2023-06-14T15:03:59;27.50;44.10
3406;DHT22;10008;48.682;9.016;2023-06-14T15:06:25;27.20;45.30
3406;DHT22;10008;48.682;9.016;2023-06-14T15:08:50;27.50;44.80
3406;DHT22;10008;48.682;9.016;2023-06-14T15:11:16;27.30;43.40
3406;DHT22;10008;48.682;9.016;2023-06-14T15:13:42;27.00;43.30
3406;DHT22;10008;48.682;9.016;2023-06-14T15:16:07;27.00;45.10
3406;DHT22;10008;48.682;9.016;2023-06-14T15:18:33;27.10;47.50
3406;DHT22;10008;48.682;9.016;2023-06-14T15:20:59;27.50;46.20
3406;DHT22;10008;48.682;9.016;2023-06-14T15:23:25;27.30;44.40
3406;DHT22;10008;48.682;9.016;2023-06-14T15:25:50;26.70;45.90
3406;DHT22;10008;48.682;9.016;2023-06-14T15:28:17;26.70;45.40
3406;DHT22;10008;48.682;9.016;2023-06-14T15:30:43;27.00;46.30
3406;DHT22;10008;48.682;9.016;2023-06-14T15:33:09;26.90;45.90
3406;DHT22;10008;48.682;9.016;2023-06-14T15:35:34;26.90;46.90
3406;DHT22;10008;48.682;9.016;2023-06-14T15:38:00;26.40;46.80
3406;DHT22;10008;48.682;9.016;2023-06-14T15:40:26;25.80;47.20
3406;DHT22;10008;48.682;9.016;2023-06-14T15:42:53;26.10;47.20
3406;DHT22;10008;48.682;9.016;2023-06-14T15:45:19;26.30;47.70
3406;DHT22;10008;48.682;9.016;2023-06-14T15:47:45;26.40;47.70
3406;DHT22;10008;48.682;9.016;2023-06-14T15:50:10;26.40;46.80
3406;DHT22;10008;48.682;9.016;2023-06-14T15:52:38;26.20;47.60
3406;DHT22;10008;48.682;9.016;2023-06-14T15:55:04;26.40;47.10
3406;DHT22;10008;48.682;9.016;2023-06-14T15:57:30;26.50;48.00
3406;DHT22;10008;48.682;9.016;2023-06-14T15:59:56;26.70;46.90
3406;DHT22;10008;48.682;9.016;2023-06-14T16:02:21;26.80;46.60
3406;DHT22;10008;48.682;9.016;2023-06-14T16:04:47;26.40;46.60
3406;DHT22;10008;48.682;9.016;2023-06-14T16:07:13;25.90;46.50